Time;durP1;ratioP1;P1;durP2;ratioP2;P2;SDS_P1;SDS_P2;PMS_P1;PMS_P2;Temp;Humidity;BMP_temperature;BMP_pressure;BME280_temperature;BME280_humidity;BME280_pressure;Samples;Min_cycle;Max_cycle;Signal;HPM_P1;HPM_P2
2023/08/07 00:02:10;;;;;;;;;;;17.50;99.90;;;;;;5070312;28;19974;-69
2023/08/07 00:04:35;;;;;;;;;;;17.50;99.90;;;;;;5070307;28;19912;-70
2023/08/07 00:07:01;;;;;;;;;;;17.50;99.90;;;;;;5070334;28;20348;-70
2023/08/07 00:09:26;;;;;;;;;;;17.50;99.90;;;;;;5070684;28;19942;-70
2023/08/07 00:11:52;;;;;;;;;;;17.40;99.90;;;;;;5070289;28;20007;-69
2023/08/07 00:14:17;;;;;;;;;;;17.50;99.90;;;;;;5070435;28;20261;-70
2023/08/07 00:16:44;;;;;;;;;;;17.40;99.90;;;;;;5070325;28;20361;-70
2023/08/07 00:19:09;;;;;;;;;;;17.50;99.90;;;;;;5070508;28;20011;-70
2023/08/07 00:21:35;;;;;;;;;;;17.50;99.90;;;;;;5070738;28;20002;-69
2023/08/07 00:24:01;;;;;;;;;;;17.40;99.90;;;;;;5069234;28;19908;-69
2023/08/07 00:26:27;;;;;;;;;;;17.50;99.90;;;;;;5070265;28;19969;-68
2023/08/07 00:28:52;;;;;;;;;;;17.50;99.90;;;;;;5070162;28;19990;-71
2023/08/07 00:31:18;;;;;;;;;;;17.50;99.90;;;;;;5069030;28;19909;-69
2023/08/07 00:33:43;;;;;;;;;;;17.50;99.90;;;;;;5068829;28;19920;-71
2023/08/07 00:36:09;;;;;;;;;;;17.50;99.90;;;;;;5070564;28;19901;-71
2023/08/07 00:38:34;;;;;;;;;;;17.40;99.90;;;;;;5069874;28;19959;-69
2023/08/07 00:41:00;;;;;;;;;;;17.40;99.90;;;;;;5070152;28;19927;-69
2023/08/07 00:43:26;;;;;;;;;;;17.40;99.90;;;;;;5070169;28;19924;-69
2023/08/07 00:45:51;;;;;;;;;;;17.40;99.90;;;;;;5070766;28;20254;-70
2023/08/07 00:48:17;;;;;;;;;;;17.40;99.90;;;;;;5074156;28;19915;-70
2023/08/07 00:50:44;;;;;;;;;;;17.40;99.90;;;;;;5073743;28;19909;-69
2023/08/07 00:53:10;;;;;;;;;;;17.40;99.90;;;;;;5073842;28;19916;-69
2023/08/07 00:55:35;;;;;;;;;;;17.30;99.90;;;;;;5073699;28;20275;-69
2023/08/07 00:58:01;;;;;;;;;;;17.30;99.90;;;;;;5073406;28;20254;-69
2023/08/07 01:00:28;;;;;;;;;;;17.30;99.90;;;;;;5074379;28;19995;-69
2023/08/07 01:02:55;;;;;;;;;;;17.30;99.90;;;;;;5073445;28;20262;-70
2023/08/07 01:05:21;;;;;;;;;;;17.20;99.90;;;;;;5073375;28;20008;-70
2023/08/07 01:07:46;;;;;;;;;;;17.20;99.90;;;;;;5073301;28;20003;-69
2023/08/07 01:10:12;;;;;;;;;;;17.30;99.90;;;;;;5073045;28;20164;-69
2023/08/07 01:12:54;;;;;;;;;;;17.20;99.90;;;;;;5073260;28;19904;-69
2023/08/07 01:15:26;;;;;;;;;;;17.20;99.90;;;;;;5072656;28;19897;-70
2023/08/07 01:17:53;;;;;;;;;;;17.20;99.90;;;;;;5073234;28;20356;-70
2023/08/07 01:20:18;;;;;;;;;;;17.20;99.90;;;;;;5073220;28;20042;-69
2023/08/07 01:22:44;;;;;;;;;;;17.30;99.90;;;;;;5071895;28;20414;-70
2023/08/07 01:25:09;;;;;;;;;;;17.20;99.90;;;;;;5073553;28;19909;-71
2023/08/07 01:27:36;;;;;;;;;;;17.20;99.90;;;;;;5073528;28;20323;-69
2023/08/07 01:30:08;;;;;;;;;;;17.20;99.90;;;;;;5073155;28;19916;-71
2023/08/07 01:32:43;;;;;;;;;;;17.20;99.90;;;;;;5072893;28;19908;-70
2023/08/07 01:35:11;;;;;;;;;;;17.20;99.90;;;;;;5075698;28;20031;-70
2023/08/07 01:37:39;;;;;;;;;;;17.10;99.90;;;;;;5093251;28;19911;-71
2023/08/07 01:40:05;;;;;;;;;;;17.10;99.90;;;;;;5093120;28;19919;-69
2023/08/07 01:42:32;;;;;;;;;;;17.00;99.90;;;;;;5093421;28;19904;-71
2023/08/07 01:44:57;;;;;;;;;;;17.00;99.90;;;;;;5092940;28;19916;-70
2023/08/07 01:47:23;;;;;;;;;;;16.90;99.90;;;;;;5093086;28;20331;-70
2023/08/07 01:49:49;;;;;;;;;;;16.90;99.90;;;;;;5092773;28;19966;-70
2023/08/07 01:52:14;;;;;;;;;;;16.80;99.90;;;;;;5091799;28;20382;-71
2023/08/07 01:54:40;;;;;;;;;;;16.80;99.90;;;;;;5091725;28;20254;-70
2023/08/07 01:57:05;;;;;;;;;;;16.80;99.90;;;;;;5092736;28;19919;-69
2023/08/07 01:59:31;;;;;;;;;;;16.80;99.90;;;;;;5092842;28;19908;-69
2023/08/07 02:01:56;;;;;;;;;;;16.80;99.90;;;;;;5092869;28;19912;-70
2023/08/07 02:04:22;;;;;;;;;;;16.80;99.90;;;;;;5092798;28;20010;-70
2023/08/07 02:06:47;;;;;;;;;;;16.80;99.90;;;;;;5092507;28;19965;-69
2023/08/07 02:09:13;;;;;;;;;;;16.80;99.90;;;;;;5092782;28;19908;-69
2023/08/07 02:11:39;;;;;;;;;;;16.80;99.90;;;;;;5092547;28;20349;-70
2023/08/07 02:14:04;;;;;;;;;;;16.70;99.90;;;;;;5092643;28;20329;-71
2023/08/07 02:16:30;;;;;;;;;;;16.80;99.90;;;;;;5091515;28;19962;-70
2023/08/07 02:18:55;;;;;;;;;;;16.70;99.90;;;;;;5092252;28;20328;-70
2023/08/07 02:21:21;;;;;;;;;;;16.60;99.90;;;;;;5093138;28;19900;-69
2023/08/07 02:23:46;;;;;;;;;;;16.60;99.90;;;;;;5091045;28;20017;-69
2023/08/07 02:26:12;;;;;;;;;;;16.70;99.90;;;;;;5091220;28;19923;-69
2023/08/07 02:28:37;;;;;;;;;;;16.60;99.90;;;;;;5092300;28;19908;-68
2023/08/07 02:31:03;;;;;;;;;;;16.60;99.90;;;;;;5092513;28;19911;-69
2023/08/07 02:33:30;;;;;;;;;;;16.60;99.90;;;;;;5092516;28;20334;-70
2023/08/07 02:35:56;;;;;;;;;;;16.50;99.90;;;;;;5090856;28;20393;-70
2023/08/07 02:38:22;;;;;;;;;;;16.60;99.90;;;;;;5092014;28;19911;-70
2023/08/07 02:40:47;;;;;;;;;;;16.50;99.90;;;;;;5091776;28;20307;-70
2023/08/07 02:43:13;;;;;;;;;;;16.50;99.90;;;;;;5090848;28;19920;-70
2023/08/07 02:45:38;;;;;;;;;;;16.50;99.90;;;;;;5090918;28;19903;-69
2023/08/07 02:48:04;;;;;;;;;;;16.50;99.90;;;;;;5091101;28;19900;-70
2023/08/07 02:50:32;;;;;;;;;;;16.50;99.90;;;;;;5091633;28;19999;-70
2023/08/07 02:53:00;;;;;;;;;;;16.50;99.90;;;;;;5091759;28;19912;-70
2023/08/07 02:55:26;;;;;;;;;;;16.50;99.90;;;;;;5091583;28;19912;-70
2023/08/07 02:57:51;;;;;;;;;;;16.60;99.90;;;;;;5091652;28;19908;-70
2023/08/07 03:00:17;;;;;;;;;;;16.50;99.90;;;;;;5092136;28;19930;-69
2023/08/07 03:02:43;;;;;;;;;;;16.40;99.90;;;;;;5091476;28;19919;-69
2023/08/07 03:05:08;;;;;;;;;;;16.50;99.90;;;;;;5091517;28;19968;-68
2023/08/07 03:07:34;;;;;;;;;;;16.50;99.90;;;;;;5091650;28;19939;-69
2023/08/07 03:09:59;;;;;;;;;;;16.60;99.90;;;;;;5090768;28;19912;-69
2023/08/07 03:12:25;;;;;;;;;;;16.50;99.90;;;;;;5091683;28;19908;-71
2023/08/07 03:14:50;;;;;;;;;;;16.50;99.90;;;;;;5091281;28;20206;-70
2023/08/07 03:17:16;;;;;;;;;;;16.50;99.90;;;;;;5091287;28;19929;-70
2023/08/07 03:19:42;;;;;;;;;;;16.50;99.90;;;;;;5091372;28;19999;-69
2023/08/07 03:22:08;;;;;;;;;;;16.40;99.90;;;;;;5091206;28;19919;-69
2023/08/07 03:24:34;;;;;;;;;;;16.50;99.90;;;;;;5091806;28;20234;-70
2023/08/07 03:26:59;;;;;;;;;;;16.60;99.90;;;;;;5089996;28;20338;-69
2023/08/07 03:29:25;;;;;;;;;;;16.50;99.90;;;;;;5090934;28;19911;-69
2023/08/07 03:31:51;;;;;;;;;;;16.50;99.90;;;;;;5091034;28;20321;-70
2023/08/07 03:34:16;;;;;;;;;;;16.50;99.90;;;;;;5090804;28;20341;-69
2023/08/07 03:36:42;;;;;;;;;;;16.50;99.90;;;;;;5091020;28;20357;-71
2023/08/07 03:39:08;;;;;;;;;;;16.50;99.90;;;;;;5091625;28;19923;-69
2023/08/07 03:41:33;;;;;;;;;;;16.70;99.90;;;;;;5091114;28;20300;-69
2023/08/07 03:43:59;;;;;;;;;;;16.70;99.90;;;;;;5091154;28;20344;-70
2023/08/07 03:46:24;;;;;;;;;;;16.60;99.90;;;;;;5089738;28;19923;-68
2023/08/07 03:48:50;;;;;;;;;;;16.60;99.90;;;;;;5090637;28;19908;-70
2023/08/07 03:51:16;;;;;;;;;;;16.60;99.90;;;;;;5091258;28;19904;-69
2023/08/07 03:53:42;;;;;;;;;;;16.60;99.90;;;;;;5090848;28;19912;-70
2023/08/07 03:56:08;;;;;;;;;;;16.70;99.90;;;;;;5090781;28;19918;-69
2023/08/07 03:58:33;;;;;;;;;;;16.60;99.90;;;;;;5090785;28;19944;-69
2023/08/07 04:00:59;;;;;;;;;;;16.60;99.90;;;;;;5089884;28;19970;-69
2023/08/07 04:03:24;;;;;;;;;;;16.70;99.90;;;;;;5090005;28;19912;-69
2023/08/07 04:05:53;;;;;;;;;;;16.70;99.90;;;;;;5090880;28;20354;-69
2023/08/07 04:08:19;;;;;;;;;;;16.70;99.90;;;;;;5090640;28;19961;-69
2023/08/07 04:10:45;;;;;;;;;;;16.50;99.90;;;;;;5090526;28;19912;-70
2023/08/07 04:13:10;;;;;;;;;;;16.60;99.90;;;;;;5089566;28;20003;-69
2023/08/07 04:15:36;;;;;;;;;;;16.60;99.90;;;;;;5089480;28;19908;-69
2023/08/07 04:18:02;;;;;;;;;;;16.60;99.90;;;;;;5089764;28;20093;-69
2023/08/07 04:20:27;;;;;;;;;;;16.70;99.90;;;;;;5091007;28;19951;-68
2023/08/07 04:22:53;;;;;;;;;;;16.60;99.90;;;;;;5093537;28;20233;-69
2023/08/07 04:25:18;;;;;;;;;;;16.70;99.90;;;;;;5094571;28;19942;-69
2023/08/07 04:27:44;;;;;;;;;;;16.70;99.90;;;;;;5094477;28;19904;-69
2023/08/07 04:30:10;;;;;;;;;;;16.70;99.90;;;;;;5093791;28;19936;-69
2023/08/07 04:32:35;;;;;;;;;;;16.60;99.90;;;;;;5094044;28;20373;-69
2023/08/07 04:35:01;;;;;;;;;;;16.70;99.90;;;;;;5094328;28;19976;-70
2023/08/07 04:37:26;;;;;;;;;;;16.70;99.90;;;;;;5094245;28;19992;-68
2023/08/07 04:39:52;;;;;;;;;;;16.80;99.90;;;;;;5094535;28;19915;-68
2023/08/07 04:42:17;;;;;;;;;;;16.70;99.90;;;;;;5093618;28;20337;-69
2023/08/07 04:44:43;;;;;;;;;;;16.70;99.90;;;;;;5093186;28;20056;-70
2023/08/07 04:47:09;;;;;;;;;;;16.70;99.90;;;;;;5094241;28;19919;-69
2023/08/07 04:49:34;;;;;;;;;;;16.70;99.90;;;;;;5093931;28;19916;-70
2023/08/07 04:52:00;;;;;;;;;;;16.70;99.90;;;;;;5093967;28;19908;-68
2023/08/07 04:54:25;;;;;;;;;;;16.80;99.90;;;;;;5094396;28;19915;-70
2023/08/07 04:56:51;;;;;;;;;;;16.80;99.90;;;;;;5093983;28;19954;-69
2023/08/07 04:59:16;;;;;;;;;;;16.80;99.90;;;;;;5093936;28;19977;-68
2023/08/07 05:01:42;;;;;;;;;;;16.80;99.90;;;;;;5094115;28;19922;-70
2023/08/07 05:04:07;;;;;;;;;;;16.80;99.90;;;;;;5092657;28;19909;-70
2023/08/07 05:06:33;;;;;;;;;;;16.80;99.90;;;;;;5093188;28;19962;-70
2023/08/07 05:08:58;;;;;;;;;;;16.80;99.90;;;;;;5093750;28;19911;-70
2023/08/07 05:11:24;;;;;;;;;;;16.80;99.90;;;;;;5093695;28;19911;-70
2023/08/07 05:13:50;;;;;;;;;;;16.80;99.90;;;;;;5093790;28;19912;-71
2023/08/07 05:16:17;;;;;;;;;;;16.80;99.90;;;;;;5094019;28;20211;-69
2023/08/07 05:18:42;;;;;;;;;;;16.80;99.90;;;;;;5093547;28;19919;-68
2023/08/07 05:21:08;;;;;;;;;;;16.80;99.90;;;;;;5094263;28;19900;-69
2023/08/07 05:23:34;;;;;;;;;;;16.90;99.90;;;;;;5093643;28;19919;-70
2023/08/07 05:26:00;;;;;;;;;;;16.80;99.90;;;;;;5093678;28;19908;-69
2023/08/07 05:28:25;;;;;;;;;;;16.80;99.90;;;;;;5091758;28;19915;-69
2023/08/07 05:30:51;;;;;;;;;;;16.80;99.90;;;;;;5092283;28;19949;-70
2023/08/07 05:33:16;;;;;;;;;;;16.80;99.90;;;;;;5092783;28;20361;-69
2023/08/07 05:35:42;;;;;;;;;;;16.80;99.90;;;;;;5093218;28;19911;-70
2023/08/07 05:38:08;;;;;;;;;;;16.90;99.90;;;;;;5092087;28;19912;-69
2023/08/07 05:40:36;;;;;;;;;;;16.80;99.90;;;;;;5093139;28;19923;-70
2023/08/07 05:43:01;;;;;;;;;;;16.90;99.90;;;;;;5092223;28;19999;-69
2023/08/07 05:45:27;;;;;;;;;;;17.00;99.90;;;;;;5093382;28;20432;-69
2023/08/07 05:47:52;;;;;;;;;;;17.00;99.90;;;;;;5092952;28;19908;-69
2023/08/07 05:50:18;;;;;;;;;;;17.10;99.90;;;;;;5091487;28;20379;-70
2023/08/07 05:52:44;;;;;;;;;;;17.00;99.90;;;;;;5092745;28;19908;-70
2023/08/07 05:55:09;;;;;;;;;;;17.00;99.90;;;;;;5091797;28;19912;-69
2023/08/07 05:57:35;;;;;;;;;;;17.10;99.90;;;;;;5092998;28;19904;-69
2023/08/07 06:00:01;;;;;;;;;;;17.00;99.90;;;;;;5092938;28;20347;-69
2023/08/07 06:02:26;;;;;;;;;;;17.00;99.90;;;;;;5091338;28;20401;-70
2023/08/07 06:04:52;;;;;;;;;;;17.00;99.90;;;;;;5092801;28;20215;-70
2023/08/07 06:07:18;;;;;;;;;;;17.00;99.90;;;;;;5092302;28;20003;-69
2023/08/07 06:09:43;;;;;;;;;;;17.10;99.90;;;;;;5092238;28;20002;-70
2023/08/07 06:12:09;;;;;;;;;;;17.10;99.90;;;;;;5092876;28;20395;-69
2023/08/07 06:14:34;;;;;;;;;;;17.10;99.90;;;;;;5092045;28;19908;-69
2023/08/07 06:17:01;;;;;;;;;;;17.10;99.90;;;;;;5091249;28;20385;-72
2023/08/07 06:19:27;;;;;;;;;;;17.30;99.90;;;;;;5090698;28;20297;-74
2023/08/07 06:21:52;;;;;;;;;;;17.40;99.90;;;;;;5092076;28;19962;-75
2023/08/07 06:24:18;;;;;;;;;;;17.50;99.90;;;;;;5091555;28;20363;-73
2023/08/07 06:26:44;;;;;;;;;;;17.50;99.90;;;;;;5092361;28;19919;-73
2023/08/07 06:29:09;;;;;;;;;;;17.50;99.90;;;;;;5092071;28;20334;-73
2023/08/07 06:31:35;;;;;;;;;;;17.50;99.90;;;;;;5090834;28;19938;-72
2023/08/07 06:34:00;;;;;;;;;;;17.50;99.90;;;;;;5091802;28;19928;-72
2023/08/07 06:36:26;;;;;;;;;;;17.40;99.90;;;;;;5091238;28;20318;-72
2023/08/07 06:38:52;;;;;;;;;;;17.30;99.90;;;;;;5090833;28;20052;-72
2023/08/07 06:41:17;;;;;;;;;;;17.30;99.90;;;;;;5091513;28;20265;-73
2023/08/07 06:43:43;;;;;;;;;;;17.40;99.90;;;;;;5092051;28;19920;-73
2023/08/07 06:46:08;;;;;;;;;;;17.40;99.90;;;;;;5091902;28;20389;-73
2023/08/07 06:48:34;;;;;;;;;;;17.40;99.90;;;;;;5092065;28;19904;-72
2023/08/07 06:51:00;;;;;;;;;;;17.30;99.90;;;;;;5090528;28;20299;-73
2023/08/07 06:53:25;;;;;;;;;;;17.30;99.90;;;;;;5090328;28;20266;-74
2023/08/07 06:55:51;;;;;;;;;;;17.50;99.90;;;;;;5091522;28;19908;-71
2023/08/07 06:58:17;;;;;;;;;;;17.40;99.90;;;;;;5091566;28;20356;-72
2023/08/07 07:00:42;;;;;;;;;;;17.60;99.90;;;;;;5091568;28;19904;-73
2023/08/07 07:03:09;;;;;;;;;;;17.50;99.90;;;;;;5092107;28;20359;-72
2023/08/07 07:05:35;;;;;;;;;;;17.40;99.90;;;;;;5090153;28;19908;-73
2023/08/07 07:08:01;;;;;;;;;;;17.50;99.90;;;;;;5090469;28;19969;-74
2023/08/07 07:10:26;;;;;;;;;;;17.50;99.90;;;;;;5090191;28;19916;-73
2023/08/07 07:12:52;;;;;;;;;;;17.50;99.90;;;;;;5091653;28;19918;-73
2023/08/07 07:15:18;;;;;;;;;;;17.60;99.90;;;;;;5091696;28;19908;-73
2023/08/07 07:17:43;;;;;;;;;;;17.70;99.90;;;;;;5091350;28;19945;-72
2023/08/07 07:20:09;;;;;;;;;;;17.70;99.90;;;;;;5091267;28;20383;-73
2023/08/07 07:22:35;;;;;;;;;;;17.70;99.90;;;;;;5091709;28;19944;-73
2023/08/07 07:25:01;;;;;;;;;;;17.70;99.90;;;;;;5090246;28;19908;-72
2023/08/07 07:27:26;;;;;;;;;;;17.80;99.90;;;;;;5074835;28;20243;-71
2023/08/07 07:29:52;;;;;;;;;;;17.80;99.90;;;;;;5049590;28;19917;-73
2023/08/07 07:32:18;;;;;;;;;;;17.80;99.90;;;;;;5050981;28;20168;-72
2023/08/07 07:34:43;;;;;;;;;;;17.80;99.90;;;;;;5049628;28;20140;-73
2023/08/07 07:37:09;;;;;;;;;;;17.80;99.90;;;;;;5050983;28;19919;-73
2023/08/07 07:39:35;;;;;;;;;;;17.70;99.90;;;;;;5051203;28;19904;-72
2023/08/07 07:42:01;;;;;;;;;;;17.80;99.90;;;;;;5049549;28;19909;-75
2023/08/07 07:44:26;;;;;;;;;;;17.90;99.90;;;;;;5050567;28;19999;-72
2023/08/07 07:46:52;;;;;;;;;;;18.10;99.90;;;;;;5050843;28;19948;-72
2023/08/07 07:49:17;;;;;;;;;;;18.20;99.90;;;;;;5050620;28;19982;-72
2023/08/07 07:51:44;;;;;;;;;;;18.30;99.90;;;;;;5051078;28;20437;-73
2023/08/07 07:54:10;;;;;;;;;;;18.30;99.90;;;;;;5051448;28;19911;-74
2023/08/07 07:56:37;;;;;;;;;;;18.30;99.90;;;;;;5057394;28;19913;-72
2023/08/07 07:59:02;;;;;;;;;;;18.30;99.90;;;;;;5057355;28;19931;-72
2023/08/07 08:01:28;;;;;;;;;;;18.30;99.90;;;;;;5057296;28;19909;-73
2023/08/07 08:03:53;;;;;;;;;;;18.40;99.90;;;;;;5057269;28;20289;-74
2023/08/07 08:06:19;;;;;;;;;;;18.60;99.90;;;;;;5057827;28;19905;-73
2023/08/07 08:08:45;;;;;;;;;;;18.80;99.90;;;;;;5057965;28;19909;-73
2023/08/07 08:11:10;;;;;;;;;;;18.90;99.90;;;;;;5057562;28;20246;-73
2023/08/07 08:13:38;;;;;;;;;;;18.90;99.90;;;;;;5057395;28;19919;-74
2023/08/07 08:16:04;;;;;;;;;;;19.00;99.90;;;;;;5057690;28;19920;-73
2023/08/07 08:18:30;;;;;;;;;;;18.80;99.90;;;;;;5058738;28;19904;-73
2023/08/07 08:20:55;;;;;;;;;;;18.80;99.90;;;;;;5059234;28;19912;-73
2023/08/07 08:23:21;;;;;;;;;;;18.70;99.90;;;;;;5058934;28;19909;-73
2023/08/07 08:25:47;;;;;;;;;;;18.70;99.90;;;;;;5058693;28;19924;-75
2023/08/07 08:28:13;;;;;;;;;;;18.60;99.90;;;;;;5058902;28;19923;-72
2023/08/07 08:30:38;;;;;;;;;;;18.40;99.90;;;;;;5058486;28;19908;-72
2023/08/07 08:33:05;;;;;;;;;;;18.40;99.90;;;;;;5073550;28;20208;-74
2023/08/07 08:35:31;;;;;;;;;;;18.40;99.90;;;;;;5057772;28;19909;-74
2023/08/07 08:37:56;;;;;;;;;;;18.40;99.90;;;;;;5056067;28;19995;-72
2023/08/07 08:40:24;;;;;;;;;;;18.50;99.90;;;;;;5057203;28;19923;-72
2023/08/07 08:42:51;;;;;;;;;;;18.90;99.90;;;;;;5057346;28;20254;-72
2023/08/07 08:45:18;;;;;;;;;;;19.60;99.90;;;;;;5056313;28;20169;-73
2023/08/07 08:47:45;;;;;;;;;;;20.30;99.90;;;;;;5056773;28;19909;-72
2023/08/07 08:50:12;;;;;;;;;;;20.80;99.90;;;;;;5072229;28;19912;-73
2023/08/07 08:52:42;;;;;;;;;;;20.70;99.90;;;;;;5055714;28;20007;-73
2023/08/07 08:55:08;;;;;;;;;;;20.50;99.90;;;;;;5056460;28;19913;-72
2023/08/07 08:57:34;;;;;;;;;;;20.30;99.90;;;;;;5072478;28;19944;-73
2023/08/07 09:00:00;;;;;;;;;;;20.10;99.90;;;;;;5056611;28;19959;-73
2023/08/07 09:02:26;;;;;;;;;;;19.80;99.90;;;;;;5056612;28;19913;-74
2023/08/07 09:04:51;;;;;;;;;;;19.30;99.90;;;;;;5056543;28;20334;-74
2023/08/07 09:07:19;;;;;;;;;;;18.90;99.90;;;;;;5053113;28;19912;-72
2023/08/07 09:09:46;;;;;;;;;;;18.70;99.90;;;;;;5053582;28;19919;-70
2023/08/07 09:12:16;;;;;;;;;;;18.40;99.90;;;;;;5054026;28;20307;-72
2023/08/07 09:14:44;;;;;;;;;;;18.30;99.90;;;;;;5053538;28;19909;-71
2023/08/07 09:17:11;;;;;;;;;;;18.20;99.90;;;;;;5053240;28;19951;-71
2023/08/07 09:19:37;;;;;;;;;;;18.20;99.90;;;;;;5052894;28;19924;-71
2023/08/07 09:22:02;;;;;;;;;;;18.40;99.90;;;;;;5051897;28;20227;-71
2023/08/07 09:24:28;;;;;;;;;;;18.40;99.90;;;;;;5053161;28;19905;-71
2023/08/07 09:26:55;;;;;;;;;;;18.50;99.90;;;;;;5052703;28;20412;-70
2023/08/07 09:29:21;;;;;;;;;;;18.90;99.90;;;;;;5051843;28;20299;-70
2023/08/07 09:31:47;;;;;;;;;;;19.10;99.90;;;;;;5067929;28;19917;-71
2023/08/07 09:34:16;;;;;;;;;;;20.10;99.90;;;;;;5052631;28;19920;-71
2023/08/07 09:36:41;;;;;;;;;;;21.20;99.90;;;;;;5052887;28;19979;-70
2023/08/07 09:39:07;;;;;;;;;;;22.10;99.90;;;;;;5052963;28;19904;-71
2023/08/07 09:41:34;;;;;;;;;;;23.20;99.90;;;;;;5051589;28;19909;-70
2023/08/07 09:44:06;;;;;;;;;;;24.20;99.90;;;;;;5068224;28;19909;-70
2023/08/07 09:46:37;;;;;;;;;;;24.40;97.60;;;;;;5052936;28;20305;-70
2023/08/07 09:49:02;;;;;;;;;;;24.10;97.90;;;;;;5052636;28;20019;-71
2023/08/07 09:51:40;;;;;;;;;;;24.00;97.50;;;;;;5052939;28;19995;-70
2023/08/07 09:54:06;;;;;;;;;;;23.10;97.70;;;;;;5051508;28;19916;-70
2023/08/07 09:56:33;;;;;;;;;;;22.50;98.10;;;;;;5052441;28;19909;-69
2023/08/07 09:59:00;;;;;;;;;;;21.60;98.10;;;;;;5052330;28;19909;-71
2023/08/07 10:01:25;;;;;;;;;;;21.10;99.40;;;;;;5067925;28;20325;-71
2023/08/07 10:03:51;;;;;;;;;;;20.30;99.90;;;;;;5052220;28;19904;-71
2023/08/07 10:06:18;;;;;;;;;;;19.70;99.90;;;;;;5052985;28;20493;-71
2023/08/07 10:08:45;;;;;;;;;;;19.50;99.90;;;;;;5051998;28;19999;-71
2023/08/07 10:11:11;;;;;;;;;;;19.50;99.90;;;;;;5051056;28;19915;-72
2023/08/07 10:13:40;;;;;;;;;;;19.80;99.90;;;;;;5052013;28;20367;-72
2023/08/07 10:16:06;;;;;;;;;;;20.20;99.90;;;;;;5052118;28;19919;-74
2023/08/07 10:18:32;;;;;;;;;;;20.50;99.90;;;;;;5052226;28;19905;-71
2023/08/07 10:20:59;;;;;;;;;;;20.50;99.90;;;;;;5052445;28;19937;-71
2023/08/07 10:23:24;;;;;;;;;;;20.50;99.90;;;;;;5051842;28;19908;-72
2023/08/07 10:25:51;;;;;;;;;;;20.40;99.90;;;;;;5051842;28;19931;-71
2023/08/07 10:28:18;;;;;;;;;;;20.10;99.90;;;;;;5051794;28;19978;-71
2023/08/07 10:30:44;;;;;;;;;;;19.90;99.90;;;;;;5050532;28;20354;-71
2023/08/07 10:33:10;;;;;;;;;;;19.70;99.90;;;;;;5051908;28;19947;-72
2023/08/07 10:35:37;;;;;;;;;;;19.60;99.90;;;;;;5051400;28;19909;-70
2023/08/07 10:38:07;;;;;;;;;;;19.40;99.90;;;;;;5051764;28;19919;-71
2023/08/07 10:40:32;;;;;;;;;;;19.60;99.90;;;;;;5051022;28;20379;-71
2023/08/07 10:42:58;;;;;;;;;;;19.80;99.90;;;;;;5051720;28;20003;-72
2023/08/07 10:45:25;;;;;;;;;;;20.10;99.90;;;;;;5052271;28;19904;-72
2023/08/07 10:47:58;;;;;;;;;;;20.20;99.90;;;;;;5050614;28;19912;-71
2023/08/07 10:50:34;;;;;;;;;;;20.00;99.90;;;;;;5051397;28;19978;-71
2023/08/07 10:53:03;;;;;;;;;;;19.90;99.90;;;;;;5051076;28;19936;-71
2023/08/07 10:55:32;;;;;;;;;;;19.90;99.90;;;;;;5050949;28;19918;-73
2023/08/07 10:57:58;;;;;;;;;;;19.80;99.90;;;;;;5050971;28;19962;-73
2023/08/07 11:00:28;;;;;;;;;;;19.60;99.90;;;;;;5051401;28;20005;-71
2023/08/07 11:02:54;;;;;;;;;;;19.60;99.90;;;;;;5050841;28;19935;-72
2023/08/07 11:05:20;;;;;;;;;;;19.70;99.90;;;;;;5050894;28;19909;-71
2023/08/07 11:07:46;;;;;;;;;;;19.70;99.90;;;;;;5066258;28;19920;-71
2023/08/07 11:10:13;;;;;;;;;;;19.70;99.90;;;;;;5050719;28;19912;-71
2023/08/07 11:12:38;;;;;;;;;;;19.60;99.90;;;;;;5051061;28;20270;-71
2023/08/07 11:15:04;;;;;;;;;;;19.50;99.90;;;;;;5050113;28;19908;-72
2023/08/07 11:17:29;;;;;;;;;;;19.40;99.90;;;;;;5050868;28;19908;-71
2023/08/07 11:19:55;;;;;;;;;;;19.30;99.90;;;;;;5050824;28;20374;-72
2023/08/07 11:22:21;;;;;;;;;;;19.10;99.90;;;;;;5050564;28;19912;-71
2023/08/07 11:24:47;;;;;;;;;;;19.00;99.90;;;;;;5050389;28;19986;-70
2023/08/07 11:27:12;;;;;;;;;;;19.20;99.90;;;;;;5051222;28;19908;-72
2023/08/07 11:29:38;;;;;;;;;;;19.30;99.90;;;;;;5050057;28;19951;-71
2023/08/07 11:32:04;;;;;;;;;;;19.30;99.90;;;;;;5050602;28;19966;-71
2023/08/07 11:34:30;;;;;;;;;;;19.40;99.90;;;;;;5050248;28;19986;-72
2023/08/07 11:36:57;;;;;;;;;;;19.30;99.90;;;;;;5050320;28;20342;-74
2023/08/07 11:39:24;;;;;;;;;;;19.30;99.90;;;;;;5049663;28;19915;-70
2023/08/07 11:41:52;;;;;;;;;;;19.10;99.80;;;;;;5050522;28;19978;-70
2023/08/07 11:44:18;;;;;;;;;;;18.80;99.50;;;;;;5050357;28;19923;-70
2023/08/07 11:46:44;;;;;;;;;;;18.80;99.10;;;;;;5050384;28;19921;-70
2023/08/07 11:49:10;;;;;;;;;;;18.80;98.80;;;;;;5050116;28;19912;-71
2023/08/07 11:51:35;;;;;;;;;;;18.80;97.80;;;;;;5066263;28;19995;-71
2023/08/07 11:54:01;;;;;;;;;;;18.80;97.40;;;;;;5050460;28;19909;-71
2023/08/07 11:56:27;;;;;;;;;;;18.80;97.50;;;;;;5050375;28;19924;-70
2023/08/07 11:58:53;;;;;;;;;;;18.90;96.90;;;;;;5050159;28;20247;-70
2023/08/07 12:01:19;;;;;;;;;;;19.10;97.40;;;;;;5050105;28;19909;-71
2023/08/07 12:03:55;;;;;;;;;;;19.30;96.50;;;;;;5050189;28;19999;-73
2023/08/07 12:06:21;;;;;;;;;;;19.50;96.90;;;;;;5050612;28;19912;-71
2023/08/07 12:08:48;;;;;;;;;;;19.60;96.30;;;;;;5065578;28;19913;-68
2023/08/07 12:11:14;;;;;;;;;;;19.60;96.10;;;;;;5065295;28;19920;-70
2023/08/07 12:13:44;;;;;;;;;;;19.70;96.10;;;;;;5050546;28;19931;-71
2023/08/07 12:16:15;;;;;;;;;;;19.60;95.70;;;;;;5050080;28;19952;-70
2023/08/07 12:18:43;;;;;;;;;;;19.60;95.80;;;;;;5049961;28;20278;-69
2023/08/07 12:21:08;;;;;;;;;;;19.70;96.20;;;;;;5050737;28;19927;-71
2023/08/07 12:23:35;;;;;;;;;;;19.70;96.50;;;;;;5049822;28;20367;-70
2023/08/07 12:26:01;;;;;;;;;;;19.80;96.20;;;;;;5065381;28;19908;-70
2023/08/07 12:28:26;;;;;;;;;;;19.90;95.50;;;;;;5049808;28;20339;-71
2023/08/07 12:30:52;;;;;;;;;;;19.90;95.30;;;;;;5049842;28;20003;-70
2023/08/07 12:33:18;;;;;;;;;;;19.90;94.60;;;;;;5049928;28;19947;-70
2023/08/07 12:35:43;;;;;;;;;;;19.90;95.00;;;;;;5049509;28;20331;-70
2023/08/07 12:38:09;;;;;;;;;;;19.80;94.70;;;;;;5049786;28;20024;-70
2023/08/07 12:40:36;;;;;;;;;;;19.70;94.50;;;;;;5065311;28;19912;-70
2023/08/07 12:43:02;;;;;;;;;;;19.40;94.30;;;;;;5054020;28;19917;-70
2023/08/07 12:45:27;;;;;;;;;;;19.20;94.50;;;;;;5069394;28;20346;-70
2023/08/07 12:47:53;;;;;;;;;;;19.20;94.40;;;;;;5053364;28;19920;-67
2023/08/07 12:50:19;;;;;;;;;;;19.30;93.90;;;;;;5053138;28;19913;-67
2023/08/07 12:52:44;;;;;;;;;;;19.20;93.60;;;;;;5053340;28;20142;-68
2023/08/07 12:55:10;;;;;;;;;;;19.30;93.40;;;;;;5053299;28;19958;-67
2023/08/07 12:57:35;;;;;;;;;;;19.30;93.10;;;;;;5053600;28;19945;-68
2023/08/07 13:00:01;;;;;;;;;;;19.30;93.00;;;;;;5053274;28;19958;-67
2023/08/07 13:02:27;;;;;;;;;;;19.30;93.10;;;;;;5051972;28;19916;-69
2023/08/07 13:04:53;;;;;;;;;;;19.30;93.30;;;;;;5053402;28;19939;-68
2023/08/07 13:07:19;;;;;;;;;;;19.60;93.40;;;;;;5053059;28;20276;-67
2023/08/07 13:09:44;;;;;;;;;;;19.50;93.20;;;;;;5052789;28;20019;-68
2023/08/07 13:12:10;;;;;;;;;;;19.60;93.20;;;;;;5053338;28;19962;-68
2023/08/07 13:14:36;;;;;;;;;;;19.60;93.60;;;;;;5052870;28;19909;-68
2023/08/07 13:17:01;;;;;;;;;;;19.60;93.10;;;;;;5051814;28;20389;-68
2023/08/07 13:19:27;;;;;;;;;;;19.70;92.90;;;;;;5052852;28;20261;-68
2023/08/07 13:21:52;;;;;;;;;;;19.50;93.00;;;;;;5051561;28;19979;-67
2023/08/07 13:24:18;;;;;;;;;;;19.40;92.90;;;;;;5053260;28;19926;-68
2023/08/07 13:26:46;;;;;;;;;;;19.20;92.90;;;;;;5053066;28;20493;-67
2023/08/07 13:29:11;;;;;;;;;;;19.20;93.10;;;;;;5052464;28;19916;-68
2023/08/07 13:31:37;;;;;;;;;;;19.20;92.80;;;;;;5052520;28;20356;-67
2023/08/07 13:34:07;;;;;;;;;;;19.30;92.80;;;;;;5052344;28;20415;-68
2023/08/07 13:36:33;;;;;;;;;;;19.40;92.70;;;;;;5051778;28;19935;-68
2023/08/07 13:39:00;;;;;;;;;;;19.50;92.60;;;;;;5068017;28;20362;-68
2023/08/07 13:41:26;;;;;;;;;;;19.40;92.40;;;;;;5052505;28;19987;-69
2023/08/07 13:43:51;;;;;;;;;;;19.40;92.50;;;;;;5052613;28;20363;-69
2023/08/07 13:46:18;;;;;;;;;;;19.40;92.60;;;;;;5052615;28;19917;-69
2023/08/07 13:48:44;;;;;;;;;;;19.50;92.40;;;;;;5067942;28;20102;-68
2023/08/07 13:51:10;;;;;;;;;;;19.60;92.70;;;;;;5052552;28;19909;-68
2023/08/07 13:53:35;;;;;;;;;;;19.60;92.50;;;;;;5052064;28;19919;-69
2023/08/07 13:56:01;;;;;;;;;;;19.60;92.40;;;;;;5052460;28;19947;-68
2023/08/07 13:58:27;;;;;;;;;;;19.70;92.30;;;;;;5052328;28;19917;-69
2023/08/07 14:00:53;;;;;;;;;;;19.50;91.90;;;;;;5052268;28;19909;-68
2023/08/07 14:03:19;;;;;;;;;;;19.50;91.90;;;;;;5052326;28;20262;-67
2023/08/07 14:05:44;;;;;;;;;;;19.40;92.20;;;;;;5052425;28;19908;-68
2023/08/07 14:08:10;;;;;;;;;;;19.50;92.30;;;;;;5051923;28;19919;-68
2023/08/07 14:10:38;;;;;;;;;;;19.50;92.10;;;;;;5051899;28;20525;-68